Climatologie pour Saint-Brevin les Pins
Jour • Résumé pour mai 27, 2017 Système :  Métrique    Anglais   Mixte
« - 1 jour
+ 1 jour »
Jour Semaine Mois Année Personnalisé
  Maximum : Minimum : Moyenne :
Température sous abri : 25.7 °C 15.4 °C 19.8 °C
Point de rosée : 19.6 °C 14.6 °C 16.5 °C
Humidité : 96 % 63 % 82 %
Vitesse du vent : 17.7 km/h 0.0 km/h 4.7 km/h
Rafale : 29.0 km/h - -
Direction :- - SSW
Pression : 1017.2 hPa 1012.1 hPa -
Précipitations : 0.5 mm    
Historical Graphs
 
 
Tableau de données pour mai 27, 2017
Heure Tempé Pt rosée Pression Vent Vitesse Rafale Humidité Taux pluie (/hr) Soleil
00:00 17.7 °C 16.4 °C 1012.8 hPa SSW 11.3 km/h 24.1 km/h 92 % 0.0 mm 0 W/m2
00:10 17.6 °C 16.2 °C 1012.8 hPa WSW 3.2 km/h 14.5 km/h 92 % 0.0 mm 0 W/m2
00:20 17.4 °C 16.3 °C 1012.8 hPa WSW 8.0 km/h 17.7 km/h 93 % 0.0 mm 0 W/m2
00:25 17.3 °C 16.2 °C 1012.8 hPa WNW 12.9 km/h 17.7 km/h 93 % 0.0 mm 0 W/m2
00:30 17.2 °C 16.1 °C 1012.8 hPa WSW 11.3 km/h 17.7 km/h 93 % 0.0 mm 0 W/m2
00:35 17.2 °C 16.1 °C 1012.4 hPa West 9.7 km/h 17.7 km/h 93 % 0.0 mm 0 W/m2
00:40 17.2 °C 16.0 °C 1012.4 hPa WSW 4.8 km/h 17.7 km/h 93 % 0.0 mm 0 W/m2
00:45 17.2 °C 16.0 °C 1012.4 hPa Calm   12.9 km/h 93 % 0.0 mm 0 W/m2
00:50 17.2 °C 16.1 °C 1012.1 hPa WSW 1.6 km/h 9.7 km/h 93 % 0.0 mm 0 W/m2
00:55 17.2 °C 16.1 °C 1012.4 hPa SSW 4.8 km/h 9.7 km/h 93 % 0.0 mm 0 W/m2
01:00 17.3 °C 16.1 °C 1012.8 hPa WSW 6.4 km/h 11.3 km/h 93 % 0.0 mm 0 W/m2
01:05 17.3 °C 16.1 °C 1012.4 hPa SW 6.4 km/h 14.5 km/h 93 % 0.0 mm 0 W/m2
01:10 17.3 °C 16.1 °C 1012.4 hPa SW 6.4 km/h 14.5 km/h 93 % 0.0 mm 0 W/m2
01:15 17.3 °C 16.1 °C 1012.4 hPa SSW 9.7 km/h 11.3 km/h 93 % 0.0 mm 0 W/m2
01:20 17.3 °C 16.2 °C 1012.8 hPa South 4.8 km/h 11.3 km/h 93 % 0.0 mm 0 W/m2
01:25 17.4 °C 16.4 °C 1012.4 hPa Calm   11.3 km/h 94 % 0.0 mm 0 W/m2
01:30 17.4 °C 16.4 °C 1012.8 hPa SSW 4.8 km/h 12.9 km/h 94 % 0.0 mm 0 W/m2
01:35 17.4 °C 16.3 °C 1013.1 hPa SSW 1.6 km/h 12.9 km/h 93 % 0.0 mm 0 W/m2
01:40 17.4 °C 16.3 °C 1012.8 hPa SSW 4.8 km/h 9.7 km/h 93 % 0.0 mm 0 W/m2
01:45 17.5 °C 16.4 °C 1013.1 hPa SSW 6.4 km/h 12.9 km/h 93 % 0.0 mm 0 W/m2
01:50 17.6 °C 16.4 °C 1013.4 hPa WSW 3.2 km/h 19.3 km/h 93 % 0.0 mm 0 W/m2
01:55 17.6 °C 16.5 °C 1013.4 hPa SW 3.2 km/h 19.3 km/h 93 % 0.0 mm 0 W/m2
02:00 17.6 °C 16.5 °C 1013.1 hPa SW 1.6 km/h 8.0 km/h 93 % 0.3 mm 0 W/m2
02:05 17.6 °C 16.4 °C 1013.4 hPa SW 4.8 km/h 8.0 km/h 93 % 0.3 mm 0 W/m2
02:10 17.6 °C 16.4 °C 1013.1 hPa West 4.8 km/h 9.7 km/h 93 % 0.3 mm 0 W/m2
02:15 17.4 °C 16.3 °C 1013.1 hPa WSW 9.7 km/h 17.7 km/h 93 % 0.3 mm 0 W/m2
02:20 17.3 °C 16.2 °C 1012.8 hPa WNW 4.8 km/h 20.9 km/h 93 % 0.5 mm 0 W/m2
02:25 17.2 °C 16.1 °C 1013.1 hPa West 9.7 km/h 20.9 km/h 93 % 0.5 mm 0 W/m2
02:30 17.2 °C 16.2 °C 1013.1 hPa WSW 11.3 km/h 17.7 km/h 94 % 0.5 mm 0 W/m2
02:35 17.2 °C 16.2 °C 1013.1 hPa West 8.0 km/h 16.1 km/h 94 % 0.5 mm 0 W/m2
02:40 17.2 °C 16.2 °C 1013.1 hPa SW 16.1 km/h 19.3 km/h 94 % 0.5 mm 0 W/m2
02:45 17.1 °C 16.1 °C 1012.8 hPa WSW 11.3 km/h 19.3 km/h 94 % 0.5 mm 0 W/m2
02:50 17.0 °C 16.0 °C 1013.1 hPa West 17.7 km/h 19.3 km/h 94 % 0.5 mm 0 W/m2
02:55 16.9 °C 16.1 °C 1013.1 hPa West 12.9 km/h 20.9 km/h 95 % 0.5 mm 0 W/m2
03:00 16.9 °C 16.1 °C 1013.1 hPa WSW 14.5 km/h 20.9 km/h 95 % 0.3 mm 0 W/m2
03:05 16.8 °C 16.0 °C 1013.1 hPa WSW 9.7 km/h 20.9 km/h 95 % 0.3 mm 0 W/m2
03:10 16.7 °C 15.9 °C 1013.1 hPa SW 1.6 km/h 20.9 km/h 95 % 0.3 mm 0 W/m2
03:15 16.6 °C 15.8 °C 1013.1 hPa WSW 8.0 km/h 25.7 km/h 95 % 0.3 mm 0 W/m2
03:20 16.5 °C 15.7 °C 1013.1 hPa WSW 9.7 km/h 29.0 km/h 95 % 0.0 mm 0 W/m2
03:25 16.4 °C 15.6 °C 1013.4 hPa West 4.8 km/h 29.0 km/h 95 % 0.0 mm 0 W/m2
03:30 16.4 °C 15.6 °C 1013.4 hPa WSW 9.7 km/h 27.4 km/h 95 % 0.0 mm 0 W/m2
03:35 16.3 °C 15.5 °C 1013.4 hPa West 9.7 km/h 27.4 km/h 95 % 0.0 mm 0 W/m2
03:40 16.3 °C 15.5 °C 1013.4 hPa WNW 12.9 km/h 22.5 km/h 95 % 0.0 mm 0 W/m2
03:45 16.3 °C 15.5 °C 1013.4 hPa West 11.3 km/h 25.7 km/h 95 % 0.0 mm 0 W/m2
03:50 16.3 °C 15.5 °C 1013.1 hPa West 6.4 km/h 25.7 km/h 95 % 0.0 mm 0 W/m2
03:55 16.3 °C 15.5 °C 1013.4 hPa West 3.2 km/h 22.5 km/h 95 % 0.0 mm 0 W/m2
04:00 16.2 °C 15.4 °C 1013.4 hPa WNW 4.8 km/h 22.5 km/h 95 % 0.0 mm 0 W/m2
04:05 16.2 °C 15.4 °C 1013.4 hPa West 8.0 km/h 20.9 km/h 95 % 0.0 mm 0 W/m2
04:10 16.2 °C 15.4 °C 1013.4 hPa West 6.4 km/h 22.5 km/h 95 % 0.0 mm 0 W/m2
04:15 16.2 °C 15.4 °C 1013.4 hPa NNW 8.0 km/h 22.5 km/h 95 % 0.0 mm 0 W/m2
04:20 16.2 °C 15.4 °C 1013.4 hPa WNW 9.7 km/h 20.9 km/h 95 % 0.0 mm 0 W/m2
04:25 16.2 °C 15.4 °C 1013.4 hPa West 8.0 km/h 20.9 km/h 95 % 0.0 mm 0 W/m2
04:30 16.3 °C 15.5 °C 1013.4 hPa WNW 3.2 km/h 14.5 km/h 95 % 0.0 mm 0 W/m2
04:35 16.2 °C 15.4 °C 1013.4 hPa NW 6.4 km/h 17.7 km/h 95 % 0.0 mm 0 W/m2
04:40 16.2 °C 15.4 °C 1013.4 hPa WNW 14.5 km/h 22.5 km/h 95 % 0.0 mm 0 W/m2
04:45 16.1 °C 15.3 °C 1013.4 hPa WNW 6.4 km/h 22.5 km/h 95 % 0.0 mm 0 W/m2
04:50 16.1 °C 15.3 °C 1013.4 hPa WNW 4.8 km/h 17.7 km/h 95 % 0.0 mm 0 W/m2
04:55 16.1 °C 15.1 °C 1013.4 hPa WNW 6.4 km/h 17.7 km/h 94 % 0.0 mm 0 W/m2
05:00 16.0 °C 15.2 °C 1013.4 hPa WNW 3.2 km/h 17.7 km/h 95 % 0.0 mm 0 W/m2
05:05 15.9 °C 15.0 °C 1013.4 hPa West 1.6 km/h 12.9 km/h 94 % 0.0 mm 0 W/m2
05:10 15.9 °C 14.9 °C 1013.4 hPa West 6.4 km/h 9.7 km/h 94 % 0.0 mm 0 W/m2
05:20 15.8 °C 15.0 °C 1013.4 hPa Calm   8.0 km/h 95 % 0.0 mm 0 W/m2
05:25 15.8 °C 15.0 °C 1013.4 hPa WNW 1.6 km/h 9.7 km/h 95 % 0.0 mm 0 W/m2
05:30 15.8 °C 15.0 °C 1013.4 hPa Calm   9.7 km/h 95 % 0.0 mm 0 W/m2
05:35 15.7 °C 14.9 °C 1013.4 hPa WNW 4.8 km/h 6.4 km/h 95 % 0.0 mm 0 W/m2
05:40 15.6 °C 14.8 °C 1013.4 hPa WNW 1.6 km/h 6.4 km/h 95 % 0.0 mm 0 W/m2
05:45 15.6 °C 14.8 °C 1013.4 hPa Calm   6.4 km/h 95 % 0.0 mm 0 W/m2
05:50 15.4 °C 14.6 °C 1013.8 hPa Calm   6.4 km/h 95 % 0.0 mm 0 W/m2
05:55 15.4 °C 14.8 °C 1013.8 hPa WNW 1.6 km/h 4.8 km/h 96 % 0.0 mm 0 W/m2
06:00 15.6 °C 14.9 °C 1013.8 hPa WNW 1.6 km/h 8.0 km/h 96 % 0.0 mm 0 W/m2
06:05 15.7 °C 15.0 °C 1013.8 hPa NW 3.2 km/h 9.7 km/h 96 % 0.0 mm 0 W/m2
06:10 15.7 °C 15.0 °C 1013.8 hPa WNW 6.4 km/h 11.3 km/h 96 % 0.0 mm 0 W/m2
06:15 15.7 °C 15.1 °C 1013.8 hPa West 1.6 km/h 11.3 km/h 96 % 0.0 mm 0 W/m2
06:20 15.8 °C 15.1 °C 1013.8 hPa WNW 8.0 km/h 12.9 km/h 96 % 0.0 mm 0 W/m2
06:25 15.8 °C 15.1 °C 1013.8 hPa WNW 6.4 km/h 14.5 km/h 96 % 0.0 mm 0 W/m2
06:30 15.8 °C 15.2 °C 1013.8 hPa NW 4.8 km/h 14.5 km/h 96 % 0.0 mm 0 W/m2
06:35 15.7 °C 14.9 °C 1014.1 hPa WNW 9.7 km/h 14.5 km/h 95 % 0.0 mm 7 W/m2
06:40 15.4 °C 14.6 °C 1014.1 hPa NW 9.7 km/h 14.5 km/h 95 % 0.0 mm 14 W/m2
06:45 15.4 °C 14.6 °C 1014.1 hPa WNW 3.2 km/h 14.5 km/h 95 % 0.0 mm 16 W/m2
06:50 15.4 °C 14.6 °C 1014.1 hPa WNW 8.0 km/h 14.5 km/h 95 % 0.0 mm 16 W/m2
06:55 15.4 °C 14.6 °C 1014.1 hPa WNW 11.3 km/h 14.5 km/h 95 % 0.0 mm 18 W/m2
07:00 15.4 °C 14.6 °C 1014.1 hPa North 8.0 km/h 14.5 km/h 95 % 0.0 mm 26 W/m2
07:05 15.5 °C 14.7 °C 1014.1 hPa WNW 8.0 km/h 11.3 km/h 95 % 0.0 mm 30 W/m2
07:10 15.6 °C 14.8 °C 1014.1 hPa WNW 4.8 km/h 11.3 km/h 95 % 0.0 mm 28 W/m2
07:15 15.6 °C 14.8 °C 1014.4 hPa NW 3.2 km/h 14.5 km/h 95 % 0.0 mm 39 W/m2
07:20 15.7 °C 14.9 °C 1014.4 hPa Calm   14.5 km/h 95 % 0.0 mm 49 W/m2
07:25 15.8 °C 15.0 °C 1014.4 hPa West 4.8 km/h 9.7 km/h 95 % 0.0 mm 51 W/m2
07:30 15.9 °C 15.1 °C 1014.4 hPa WNW 4.8 km/h 8.0 km/h 95 % 0.0 mm 62 W/m2
07:35 15.9 °C 15.0 °C 1014.8 hPa Calm   9.7 km/h 94 % 0.0 mm 91 W/m2
07:40 16.0 °C 15.0 °C 1014.8 hPa WNW 3.2 km/h 9.7 km/h 94 % 0.0 mm 62 W/m2
07:45 16.1 °C 15.1 °C 1014.8 hPa WNW 1.6 km/h 4.8 km/h 94 % 0.0 mm 88 W/m2
07:50 16.2 °C 15.3 °C 1014.8 hPa WNW 3.2 km/h 4.8 km/h 94 % 0.0 mm 127 W/m2
07:55 16.4 °C 15.5 °C 1015.1 hPa WNW 1.6 km/h 4.8 km/h 94 % 0.0 mm 148 W/m2
08:00 16.6 °C 15.4 °C 1015.1 hPa WNW 4.8 km/h 8.0 km/h 93 % 0.0 mm 123 W/m2
08:05 16.7 °C 15.5 °C 1015.1 hPa WNW 6.4 km/h 8.0 km/h 93 % 0.0 mm 83 W/m2
08:10 16.4 °C 15.1 °C 1015.5 hPa West 3.2 km/h 8.0 km/h 92 % 0.0 mm 121 W/m2
08:15 16.4 °C 15.1 °C 1015.5 hPa West 1.6 km/h 8.0 km/h 92 % 0.0 mm 137 W/m2
08:20 16.7 °C 15.2 °C 1015.5 hPa Calm   4.8 km/h 91 % 0.0 mm 151 W/m2
08:25 16.7 °C 15.2 °C 1015.5 hPa Calm   4.8 km/h 91 % 0.0 mm 197 W/m2
08:30 16.8 °C 15.2 °C 1015.8 hPa West 1.6 km/h 4.8 km/h 90 % 0.0 mm 153 W/m2
08:35 16.9 °C 15.2 °C 1015.5 hPa West 3.2 km/h 4.8 km/h 90 % 0.0 mm 209 W/m2
08:40 17.0 °C 15.3 °C 1015.8 hPa Calm   4.8 km/h 90 % 0.0 mm 169 W/m2
08:45 17.1 °C 15.1 °C 1015.8 hPa Calm   4.8 km/h 88 % 0.0 mm 123 W/m2
08:50 17.1 °C 15.1 °C 1015.8 hPa Calm   4.8 km/h 88 % 0.0 mm 107 W/m2
08:55 17.1 °C 15.1 °C 1015.8 hPa WSW 3.2 km/h 6.4 km/h 88 % 0.0 mm 86 W/m2
09:00 17.1 °C 15.1 °C 1015.8 hPa WSW 3.2 km/h 6.4 km/h 88 % 0.0 mm 109 W/m2
09:05 17.1 °C 15.1 °C 1016.1 hPa SSW 3.2 km/h 6.4 km/h 88 % 0.0 mm 83 W/m2
09:10 17.1 °C 15.1 °C 1016.1 hPa SSW 1.6 km/h 6.4 km/h 88 % 0.0 mm 79 W/m2
09:15 17.1 °C 15.1 °C 1016.1 hPa SSW 6.4 km/h 6.4 km/h 88 % 0.0 mm 90 W/m2
09:20 17.1 °C 15.1 °C 1016.1 hPa SSW 4.8 km/h 6.4 km/h 88 % 0.0 mm 113 W/m2
09:25 17.1 °C 15.1 °C 1016.1 hPa SSW 6.4 km/h 8.0 km/h 88 % 0.0 mm 118 W/m2
09:30 17.2 °C 15.0 °C 1016.1 hPa SSW 3.2 km/h 8.0 km/h 87 % 0.0 mm 114 W/m2
09:35 17.2 °C 15.0 °C 1016.5 hPa SSW 4.8 km/h 8.0 km/h 87 % 0.0 mm 127 W/m2
09:40 17.3 °C 15.1 °C 1016.5 hPa Calm   8.0 km/h 87 % 0.0 mm 121 W/m2
09:45 17.4 °C 15.0 °C 1016.5 hPa SSW 4.8 km/h 8.0 km/h 86 % 0.0 mm 137 W/m2
09:50 17.3 °C 15.0 °C 1016.5 hPa South 3.2 km/h 9.7 km/h 86 % 0.0 mm 160 W/m2
09:55 17.5 °C 15.3 °C 1016.8 hPa SSE 8.0 km/h 9.7 km/h 87 % 0.0 mm 171 W/m2
10:00 17.6 °C 15.2 °C 1016.8 hPa SSE 6.4 km/h 8.0 km/h 86 % 0.0 mm 178 W/m2
10:05 17.7 °C 15.3 °C 1016.8 hPa SSE 4.8 km/h 9.7 km/h 86 % 0.0 mm 162 W/m2
10:10 17.6 °C 15.2 °C 1016.8 hPa SSE 6.4 km/h 9.7 km/h 86 % 0.0 mm 186 W/m2
10:15 17.7 °C 15.2 °C 1016.8 hPa South 6.4 km/h 9.7 km/h 85 % 0.0 mm 192 W/m2
10:20 17.8 °C 15.4 °C 1016.8 hPa SSE 3.2 km/h 9.7 km/h 86 % 0.0 mm 192 W/m2
10:25 17.8 °C 15.3 °C 1016.8 hPa Calm   6.4 km/h 85 % 0.0 mm 204 W/m2
10:30 17.9 °C 15.4 °C 1016.8 hPa South 3.2 km/h 9.7 km/h 85 % 0.0 mm 220 W/m2
10:35 18.0 °C 15.4 °C 1016.8 hPa South 6.4 km/h 9.7 km/h 85 % 0.0 mm 225 W/m2
10:40 18.2 °C 15.7 °C 1016.8 hPa South 1.6 km/h 8.0 km/h 85 % 0.0 mm 255 W/m2
10:45 18.4 °C 15.4 °C 1016.8 hPa SW 4.8 km/h 6.4 km/h 83 % 0.0 mm 387 W/m2
10:50 18.9 °C 16.1 °C 1016.8 hPa SW 4.8 km/h 6.4 km/h 84 % 0.0 mm 874 W/m2
10:55 19.5 °C 16.7 °C 1016.8 hPa WSW 6.4 km/h 9.7 km/h 84 % 0.0 mm 773 W/m2
11:00 19.7 °C 16.1 °C 1016.8 hPa WSW 4.8 km/h 11.3 km/h 80 % 0.0 mm 392 W/m2
11:05 19.1 °C 15.7 °C 1016.8 hPa South 1.6 km/h 11.3 km/h 81 % 0.0 mm 364 W/m2
11:10 19.0 °C 15.9 °C 1016.8 hPa West 1.6 km/h 11.3 km/h 82 % 0.0 mm 380 W/m2
11:15 19.6 °C 16.6 °C 1016.8 hPa West 8.0 km/h 14.5 km/h 83 % 0.0 mm 747 W/m2
11:20 20.2 °C 17.0 °C 1016.8 hPa SW 8.0 km/h 14.5 km/h 82 % 0.0 mm 810 W/m2
11:25 19.3 °C 15.7 °C 1017.2 hPa WNW 8.0 km/h 12.9 km/h 80 % 0.0 mm 302 W/m2
11:30 19.0 °C 15.9 °C 1016.8 hPa WSW 3.2 km/h 11.3 km/h 82 % 0.0 mm 404 W/m2
11:35 18.9 °C 15.8 °C 1016.8 hPa WNW 8.0 km/h 12.9 km/h 82 % 0.0 mm 471 W/m2
11:40 19.1 °C 15.7 °C 1016.8 hPa SW 4.8 km/h 12.9 km/h 81 % 0.0 mm 294 W/m2
11:45 18.8 °C 15.6 °C 1016.8 hPa WNW 8.0 km/h 11.3 km/h 82 % 0.0 mm 538 W/m2
11:50 19.2 °C 16.3 °C 1016.8 hPa West 6.4 km/h 11.3 km/h 83 % 0.0 mm 533 W/m2
11:55 19.4 °C 16.3 °C 1016.8 hPa WSW 8.0 km/h 11.3 km/h 82 % 0.0 mm 638 W/m2
12:00 20.1 °C 16.5 °C 1016.8 hPa SW 3.2 km/h 12.9 km/h 80 % 0.0 mm 844 W/m2
12:05 20.2 °C 16.3 °C 1016.8 hPa Calm   12.9 km/h 78 % 0.0 mm 800 W/m2
12:10 20.4 °C 16.5 °C 1016.8 hPa West 4.8 km/h 11.3 km/h 78 % 0.0 mm 819 W/m2
12:15 20.3 °C 16.2 °C 1016.8 hPa West 3.2 km/h 14.5 km/h 77 % 0.0 mm 807 W/m2
12:20 20.4 °C 16.4 °C 1017.2 hPa WSW 9.7 km/h 14.5 km/h 78 % 0.0 mm 819 W/m2
12:25 20.6 °C 16.6 °C 1016.8 hPa WSW 6.4 km/h 12.9 km/h 78 % 0.0 mm 830 W/m2
12:30 20.3 °C 16.0 °C 1016.8 hPa West 6.4 km/h 12.9 km/h 76 % 0.0 mm 874 W/m2
12:35 20.7 °C 16.9 °C 1016.8 hPa NW 9.7 km/h 12.9 km/h 79 % 0.0 mm 928 W/m2
12:40 20.6 °C 16.6 °C 1016.8 hPa NW 1.6 km/h 17.7 km/h 78 % 0.0 mm 837 W/m2
12:45 20.7 °C 17.1 °C 1016.8 hPa West 3.2 km/h 17.7 km/h 80 % 0.0 mm 874 W/m2
12:55 21.1 °C 16.2 °C 1016.8 hPa WNW 6.4 km/h 12.9 km/h 74 % 0.0 mm 826 W/m2
13:00 20.6 °C 16.6 °C 1016.8 hPa West 8.0 km/h 12.9 km/h 78 % 0.0 mm 807 W/m2
13:05 20.5 °C 16.1 °C 1016.8 hPa WNW 4.8 km/h 12.9 km/h 76 % 0.0 mm 816 W/m2
13:10 20.7 °C 16.5 °C 1016.8 hPa WSW 1.6 km/h 12.9 km/h 77 % 0.0 mm 947 W/m2
13:15 20.6 °C 16.2 °C 1016.8 hPa West 1.6 km/h 12.9 km/h 76 % 0.0 mm 860 W/m2
13:20 20.9 °C 16.8 °C 1016.8 hPa WSW 3.2 km/h 12.9 km/h 77 % 0.0 mm 698 W/m2
13:25 20.9 °C 17.2 °C 1016.8 hPa WSW 3.2 km/h 12.9 km/h 79 % 0.0 mm 756 W/m2
13:30 20.9 °C 16.5 °C 1016.5 hPa West 1.6 km/h 11.3 km/h 76 % 0.0 mm 661 W/m2
13:35 21.1 °C 16.5 °C 1016.5 hPa WNW 6.4 km/h 9.7 km/h 75 % 0.0 mm 689 W/m2
13:40 21.1 °C 16.0 °C 1016.5 hPa WNW 4.8 km/h 9.7 km/h 73 % 0.0 mm 679 W/m2
13:45 21.2 °C 16.3 °C 1016.5 hPa WNW 3.2 km/h 11.3 km/h 74 % 0.0 mm 856 W/m2
13:50 20.9 °C 16.1 °C 1016.5 hPa West 3.2 km/h 11.3 km/h 74 % 0.0 mm 802 W/m2
13:55 21.7 °C 16.9 °C 1016.5 hPa Calm   8.0 km/h 74 % 0.0 mm 650 W/m2
14:05 21.9 °C 17.3 °C 1016.1 hPa Calm   8.0 km/h 75 % 0.0 mm 724 W/m2
14:10 22.0 °C 16.5 °C 1016.1 hPa WNW 9.7 km/h 9.7 km/h 71 % 0.0 mm 712 W/m2
14:15 21.9 °C 17.3 °C 1016.1 hPa West 4.8 km/h 9.7 km/h 75 % 0.0 mm 647 W/m2
14:25 22.3 °C 17.2 °C 1016.1 hPa WNW 3.2 km/h 9.7 km/h 73 % 0.0 mm 670 W/m2
14:30 21.9 °C 17.5 °C 1016.1 hPa NW 3.2 km/h 9.7 km/h 76 % 0.0 mm 642 W/m2
14:35 21.9 °C 17.3 °C 1016.1 hPa Calm   9.7 km/h 75 % 0.0 mm 612 W/m2
14:40 21.9 °C 17.7 °C 1016.1 hPa Calm   8.0 km/h 77 % 0.0 mm 606 W/m2
14:45 22.1 °C 17.3 °C 1016.1 hPa WNW 1.6 km/h 6.4 km/h 74 % 0.0 mm 628 W/m2
14:50 22.1 °C 17.5 °C 1016.1 hPa WNW 6.4 km/h 12.9 km/h 75 % 0.0 mm 642 W/m2
14:55 21.8 °C 17.1 °C 1016.1 hPa West 8.0 km/h 12.9 km/h 75 % 0.0 mm 629 W/m2
15:00 21.4 °C 17.2 °C 1015.8 hPa West 6.4 km/h 12.9 km/h 77 % 0.0 mm 670 W/m2
15:05 22.2 °C 17.7 °C 1016.1 hPa West 4.8 km/h 11.3 km/h 76 % 0.0 mm 612 W/m2
15:10 22.1 °C 17.4 °C 1015.8 hPa WSW 1.6 km/h 9.7 km/h 75 % 0.0 mm 494 W/m2
15:15 21.4 °C 17.0 °C 1015.8 hPa West 1.6 km/h 11.3 km/h 76 % 0.0 mm 499 W/m2
15:20 21.4 °C 17.0 °C 1015.8 hPa WNW 3.2 km/h 11.3 km/h 76 % 0.0 mm 385 W/m2
15:25 21.5 °C 17.5 °C 1015.8 hPa WNW 1.6 km/h 6.4 km/h 78 % 0.0 mm 396 W/m2
15:30 21.7 °C 17.7 °C 1015.8 hPa Calm   4.8 km/h 78 % 0.0 mm 545 W/m2
15:35 22.2 °C 17.4 °C 1015.8 hPa NNW 1.6 km/h 6.4 km/h 74 % 0.0 mm 659 W/m2
15:40 22.7 °C 18.2 °C 1015.8 hPa Calm   9.7 km/h 76 % 0.0 mm 940 W/m2
15:45 23.2 °C 18.1 °C 1015.8 hPa WNW 8.0 km/h 11.3 km/h 73 % 0.0 mm 846 W/m2
15:50 23.7 °C 18.1 °C 1015.8 hPa NW 4.8 km/h 11.3 km/h 71 % 0.0 mm 675 W/m2
15:55 23.6 °C 18.6 °C 1015.5 hPa NW 9.7 km/h 11.3 km/h 74 % 0.0 mm 763 W/m2
16:00 24.1 °C 18.7 °C 1015.5 hPa Calm   11.3 km/h 72 % 0.0 mm 823 W/m2
16:05 24.1 °C 18.5 °C 1015.5 hPa NNW 4.8 km/h 11.3 km/h 71 % 0.0 mm 717 W/m2
16:10 24.8 °C 19.2 °C 1015.5 hPa ENE 6.4 km/h 11.3 km/h 71 % 0.0 mm 657 W/m2
16:15 24.1 °C 17.5 °C 1015.8 hPa Calm   8.0 km/h 67 % 0.0 mm 547 W/m2
16:20 23.8 °C 18.0 °C 1015.8 hPa NW 3.2 km/h 8.0 km/h 70 % 0.0 mm 533 W/m2
16:25 23.9 °C 18.8 °C 1015.8 hPa NW 11.3 km/h 11.3 km/h 73 % 0.0 mm 343 W/m2
16:30 23.3 °C 18.4 °C 1015.8 hPa NW 4.8 km/h 14.5 km/h 74 % 0.0 mm 364 W/m2
16:35 22.9 °C 18.2 °C 1015.8 hPa West 6.4 km/h 14.5 km/h 75 % 0.0 mm 490 W/m2
16:40 22.9 °C 18.1 °C 1015.5 hPa Calm   11.3 km/h 74 % 0.0 mm 436 W/m2
16:45 23.1 °C 18.4 °C 1015.5 hPa Calm   11.3 km/h 75 % 0.0 mm 457 W/m2
16:50 23.4 °C 18.7 °C 1015.5 hPa NW 4.8 km/h 6.4 km/h 75 % 0.0 mm 448 W/m2
16:55 23.3 °C 18.2 °C 1015.5 hPa NW 3.2 km/h 8.0 km/h 73 % 0.0 mm 427 W/m2
17:00 23.6 °C 19.3 °C 1015.5 hPa WNW 3.2 km/h 8.0 km/h 77 % 0.0 mm 882 W/m2
17:05 24.8 °C 19.6 °C 1015.1 hPa West 8.0 km/h 9.7 km/h 73 % 0.0 mm 842 W/m2
17:10 25.1 °C 18.8 °C 1015.5 hPa WNW 4.8 km/h 12.9 km/h 68 % 0.0 mm 496 W/m2
17:15 25.0 °C 19.4 °C 1015.5 hPa North 1.6 km/h 12.9 km/h 71 % 0.0 mm 438 W/m2
17:20 25.2 °C 19.4 °C 1015.5 hPa WNW 1.6 km/h 11.3 km/h 70 % 0.0 mm 606 W/m2
17:25 24.9 °C 18.6 °C 1015.1 hPa Calm   9.7 km/h 68 % 0.0 mm 520 W/m2
17:30 25.1 °C 18.8 °C 1015.1 hPa ENE 8.0 km/h 11.3 km/h 68 % 0.0 mm 439 W/m2
17:35 25.1 °C 18.5 °C 1015.1 hPa NNE 3.2 km/h 11.3 km/h 67 % 0.0 mm 552 W/m2
17:40 25.2 °C 18.1 °C 1015.1 hPa North 3.2 km/h 12.9 km/h 65 % 0.0 mm 457 W/m2
17:45 25.3 °C 18.2 °C 1015.1 hPa North 4.8 km/h 12.9 km/h 65 % 0.0 mm 543 W/m2
17:50 25.2 °C 18.2 °C 1015.1 hPa North 4.8 km/h 16.1 km/h 65 % 0.0 mm 552 W/m2
17:55 25.5 °C 19.4 °C 1015.1 hPa Calm   16.1 km/h 69 % 0.0 mm 431 W/m2
18:00 25.5 °C 18.4 °C 1015.1 hPa NNE 1.6 km/h 11.3 km/h 65 % 0.0 mm 531 W/m2
18:05 25.4 °C 17.8 °C 1014.8 hPa NNE 1.6 km/h 11.3 km/h 63 % 0.0 mm 519 W/m2
18:10 25.7 °C 19.1 °C 1014.8 hPa NW 8.0 km/h 11.3 km/h 67 % 0.0 mm 413 W/m2
18:15 25.6 °C 18.0 °C 1014.8 hPa NE 4.8 km/h 11.3 km/h 63 % 0.0 mm 434 W/m2
18:20 25.5 °C 18.4 °C 1014.8 hPa NE 6.4 km/h 11.3 km/h 65 % 0.0 mm 429 W/m2
18:25 25.4 °C 18.1 °C 1014.4 hPa ENE 12.9 km/h 12.9 km/h 64 % 0.0 mm 443 W/m2
18:30 25.3 °C 18.0 °C 1014.8 hPa NE 11.3 km/h 14.5 km/h 64 % 0.0 mm 399 W/m2
18:35 25.4 °C 17.8 °C 1014.8 hPa Calm   14.5 km/h 63 % 0.0 mm 387 W/m2
18:40 25.5 °C 18.7 °C 1014.8 hPa Calm   11.3 km/h 66 % 0.0 mm 385 W/m2
18:45 25.6 °C 18.7 °C 1014.4 hPa NE 4.8 km/h 11.3 km/h 66 % 0.0 mm 357 W/m2
18:50 25.4 °C 18.3 °C 1014.4 hPa NNE 6.4 km/h 12.9 km/h 65 % 0.0 mm 336 W/m2
18:55 25.2 °C 18.7 °C 1014.4 hPa NNE 6.4 km/h 16.1 km/h 67 % 0.0 mm 329 W/m2
19:00 25.3 °C 18.8 °C 1014.4 hPa ENE 3.2 km/h 16.1 km/h 67 % 0.0 mm 385 W/m2
19:05 25.5 °C 18.4 °C 1014.4 hPa North 6.4 km/h 14.5 km/h 65 % 0.0 mm 338 W/m2
19:10 25.3 °C 18.0 °C 1014.4 hPa North 11.3 km/h 14.5 km/h 64 % 0.0 mm 127 W/m2
19:15 24.7 °C 17.9 °C 1014.4 hPa Calm   14.5 km/h 66 % 0.0 mm 125 W/m2
19:20 24.4 °C 18.1 °C 1014.4 hPa East 12.9 km/h 14.5 km/h 68 % 0.0 mm 113 W/m2
19:25 24.3 °C 18.5 °C 1014.4 hPa NE 9.7 km/h 14.5 km/h 70 % 0.0 mm 137 W/m2
19:30 24.4 °C 18.1 °C 1014.4 hPa Calm   12.9 km/h 68 % 0.0 mm 197 W/m2
19:35 24.7 °C 18.9 °C 1014.4 hPa NE 6.4 km/h 14.5 km/h 70 % 0.0 mm 190 W/m2
19:40 24.8 °C 18.5 °C 1014.4 hPa North 4.8 km/h 14.5 km/h 68 % 0.0 mm 232 W/m2
19:45 24.8 °C 18.5 °C 1014.4 hPa NNE 6.4 km/h 12.9 km/h 68 % 0.0 mm 158 W/m2
19:50 24.6 °C 18.1 °C 1014.4 hPa North 6.4 km/h 17.7 km/h 67 % 0.0 mm 125 W/m2
19:55 24.3 °C 18.5 °C 1014.4 hPa NNW 8.0 km/h 17.7 km/h 70 % 0.0 mm 111 W/m2
20:00 24.1 °C 18.0 °C 1014.4 hPa NNE 3.2 km/h 11.3 km/h 69 % 0.0 mm 151 W/m2
20:05 24.2 °C 18.6 °C 1014.4 hPa North 3.2 km/h 11.3 km/h 71 % 0.0 mm 134 W/m2
20:10 24.2 °C 18.1 °C 1014.4 hPa NE 11.3 km/h 14.5 km/h 69 % 0.0 mm 134 W/m2
20:15 24.1 °C 17.8 °C 1014.4 hPa North 3.2 km/h 14.5 km/h 68 % 0.0 mm 102 W/m2
20:20 23.9 °C 17.6 °C 1014.4 hPa NNE 6.4 km/h 14.5 km/h 68 % 0.0 mm 125 W/m2
20:25 23.9 °C 17.7 °C 1014.4 hPa NE 1.6 km/h 14.5 km/h 68 % 0.0 mm 97 W/m2
20:30 23.9 °C 17.7 °C 1014.1 hPa NNE 6.4 km/h 14.5 km/h 68 % 0.0 mm 81 W/m2
20:35 23.8 °C 18.0 °C 1014.4 hPa Calm   12.9 km/h 70 % 0.0 mm 67 W/m2
20:40 23.6 °C 18.0 °C 1014.4 hPa NE 6.4 km/h 12.9 km/h 71 % 0.0 mm 54 W/m2
20:45 23.6 °C 18.0 °C 1014.4 hPa North 6.4 km/h 11.3 km/h 71 % 0.0 mm 44 W/m2
20:50 23.6 °C 18.0 °C 1014.4 hPa North 3.2 km/h 11.3 km/h 71 % 0.0 mm 40 W/m2
20:55 23.4 °C 17.9 °C 1014.4 hPa NNE 8.0 km/h 12.9 km/h 71 % 0.0 mm 40 W/m2
21:00 23.3 °C 18.0 °C 1014.4 hPa NNE 3.2 km/h 12.9 km/h 72 % 0.0 mm 33 W/m2
21:05 23.2 °C 17.8 °C 1014.4 hPa NNE 3.2 km/h 12.9 km/h 72 % 0.0 mm 28 W/m2
21:10 23.0 °C 17.9 °C 1014.4 hPa North 4.8 km/h 9.7 km/h 73 % 0.0 mm 26 W/m2
21:15 22.8 °C 17.7 °C 1014.4 hPa NNE 4.8 km/h 9.7 km/h 73 % 0.0 mm 23 W/m2
21:20 22.6 °C 17.5 °C 1014.4 hPa NNE 6.4 km/h 11.3 km/h 73 % 0.0 mm 19 W/m2
21:25 22.5 °C 17.6 °C 1014.4 hPa Calm   11.3 km/h 74 % 0.0 mm 18 W/m2
21:30 22.3 °C 17.6 °C 1014.4 hPa NE 6.4 km/h 11.3 km/h 75 % 0.0 mm 14 W/m2
21:35 22.1 °C 17.4 °C 1014.8 hPa NNE 6.4 km/h 9.7 km/h 75 % 0.0 mm 9 W/m2
21:40 21.9 °C 17.5 °C 1014.8 hPa Calm   9.7 km/h 76 % 0.0 mm 7 W/m2
21:45 21.6 °C 17.4 °C 1014.8 hPa NNE 6.4 km/h 9.7 km/h 77 % 0.0 mm 5 W/m2
21:50 21.3 °C 17.3 °C 1014.8 hPa NNW 3.2 km/h 8.0 km/h 78 % 0.0 mm 0 W/m2
21:55 21.3 °C 17.1 °C 1014.8 hPa NNE 4.8 km/h 8.0 km/h 77 % 0.0 mm 0 W/m2
22:00 21.2 °C 17.2 °C 1014.8 hPa North 3.2 km/h 6.4 km/h 78 % 0.0 mm 0 W/m2
22:05 21.0 °C 17.0 °C 1014.8 hPa North 3.2 km/h 9.7 km/h 78 % 0.0 mm 0 W/m2
22:10 20.9 °C 16.8 °C 1014.8 hPa Calm   9.7 km/h 77 % 0.0 mm 0 W/m2
22:15 20.7 °C 16.7 °C 1014.8 hPa North 3.2 km/h 11.3 km/h 78 % 0.0 mm 0 W/m2
22:20 20.6 °C 16.6 °C 1014.8 hPa NNE 1.6 km/h 11.3 km/h 78 % 0.0 mm 0 W/m2
22:25 20.3 °C 16.6 °C 1014.8 hPa NNE 3.2 km/h 9.7 km/h 79 % 0.0 mm 0 W/m2
22:30 20.3 °C 16.6 °C 1015.1 hPa North 3.2 km/h 9.7 km/h 79 % 0.0 mm 0 W/m2
22:35 20.3 °C 16.5 °C 1015.1 hPa NNE 3.2 km/h 8.0 km/h 79 % 0.0 mm 0 W/m2
22:40 20.2 °C 16.4 °C 1015.1 hPa North 9.7 km/h 9.7 km/h 79 % 0.0 mm 0 W/m2
22:45 20.0 °C 16.4 °C 1015.1 hPa North 3.2 km/h 9.7 km/h 80 % 0.0 mm 0 W/m2
22:50 19.9 °C 16.4 °C 1015.1 hPa Calm   9.7 km/h 80 % 0.0 mm 0 W/m2
22:55 19.9 °C 16.3 °C 1015.1 hPa NNE 3.2 km/h 8.0 km/h 80 % 0.0 mm 0 W/m2
23:00 20.0 °C 16.4 °C 1015.1 hPa NE 3.2 km/h 8.0 km/h 80 % 0.0 mm 0 W/m2
23:05 19.9 °C 16.3 °C 1015.1 hPa North 1.6 km/h 6.4 km/h 80 % 0.0 mm 0 W/m2
23:10 19.9 °C 16.4 °C 1015.1 hPa Calm   6.4 km/h 80 % 0.0 mm 0 W/m2
23:15 19.9 °C 16.3 °C 1015.1 hPa Calm   6.4 km/h 80 % 0.0 mm 0 W/m2
23:20 19.8 °C 16.2 °C 1015.1 hPa Calm   6.4 km/h 80 % 0.0 mm 0 W/m2
23:25 19.7 °C 16.3 °C 1015.1 hPa NE 1.6 km/h 9.7 km/h 81 % 0.0 mm 0 W/m2
23:30 19.8 °C 16.2 °C 1015.1 hPa Calm   9.7 km/h 80 % 0.0 mm 0 W/m2
23:35 19.8 °C 16.3 °C 1015.1 hPa ENE 3.2 km/h 8.0 km/h 80 % 0.0 mm 0 W/m2
23:40 19.8 °C 16.2 °C 1015.1 hPa NE 3.2 km/h 8.0 km/h 80 % 0.0 mm 0 W/m2
23:45 19.8 °C 16.3 °C 1015.1 hPa ENE 1.6 km/h 9.7 km/h 80 % 0.0 mm 0 W/m2
23:50 19.9 °C 16.3 °C 1014.8 hPa ENE 1.6 km/h 9.7 km/h 80 % 0.0 mm 0 W/m2
23:55 19.8 °C 16.3 °C 1014.8 hPa ENE 1.6 km/h 6.4 km/h 80 % 0.0 mm 0 W/m2
Avec l'autorisation de Weather Underground - 1.75 mb